sensor_id;sensor_type;location;lat;lon;timestamp;pressure;altitude;pressure_sealevel;temperature;humidity
14117;BME280;7137;51.436;6.544;2023-04-01T00:02:04;98857.72;;;10.05;100.00
14117;BME280;7137;51.436;6.544;2023-04-01T00:05:08;98851.06;;;9.86;100.00
14117;BME280;7137;51.436;6.544;2023-04-01T00:08:11;98851.72;;;9.89;100.00
14117;BME280;7137;51.436;6.544;2023-04-01T00:11:13;98850.50;;;9.95;100.00
14117;BME280;7137;51.436;6.544;2023-04-01T00:14:15;98858.25;;;9.96;100.00
14117;BME280;7137;51.436;6.544;2023-04-01T00:17:16;98850.72;;;10.06;100.00
14117;BME280;7137;51.436;6.544;2023-04-01T00:20:19;98853.31;;;10.06;100.00
14117;BME280;7137;51.436;6.544;2023-04-01T00:23:21;98846.03;;;9.97;100.00
14117;BME280;7137;51.436;6.544;2023-04-01T00:26:24;98852.66;;;9.88;100.00
14117;BME280;7137;51.436;6.544;2023-04-01T00:29:26;98856.09;;;9.89;100.00
14117;BME280;7137;51.436;6.544;2023-04-01T00:32:30;98849.94;;;9.90;100.00
14117;BME280;7137;51.436;6.544;2023-04-01T00:35:33;98846.09;;;9.81;100.00
14117;BME280;7137;51.436;6.544;2023-04-01T00:38:35;98855.34;;;9.87;100.00
14117;BME280;7137;51.436;6.544;2023-04-01T00:41:37;98857.38;;;9.81;100.00
14117;BME280;7137;51.436;6.544;2023-04-01T00:44:39;98858.97;;;9.84;100.00
14117;BME280;7137;51.436;6.544;2023-04-01T00:47:41;98845.25;;;9.80;100.00
14117;BME280;7137;51.436;6.544;2023-04-01T00:50:46;98863.16;;;9.72;100.00
14117;BME280;7137;51.436;6.544;2023-04-01T00:53:51;98848.84;;;9.64;100.00
14117;BME280;7137;51.436;6.544;2023-04-01T00:56:56;98848.91;;;9.78;100.00
14117;BME280;7137;51.436;6.544;2023-04-01T00:59:59;98846.66;;;9.72;100.00
14117;BME280;7137;51.436;6.544;2023-04-01T01:03:01;98844.44;;;9.80;100.00
14117;BME280;7137;51.436;6.544;2023-04-01T01:06:22;98841.25;;;9.75;100.00
14117;BME280;7137;51.436;6.544;2023-04-01T01:09:38;98837.53;;;9.79;100.00
14117;BME280;7137;51.436;6.544;2023-04-01T01:12:45;98830.75;;;9.76;100.00
14117;BME280;7137;51.436;6.544;2023-04-01T01:15:54;98835.59;;;9.82;100.00
14117;BME280;7137;51.436;6.544;2023-04-01T01:19:01;98840.69;;;9.84;100.00
14117;BME280;7137;51.436;6.544;2023-04-01T01:22:20;98837.81;;;9.74;100.00
14117;BME280;7137;51.436;6.544;2023-04-01T01:25:33;98839.75;;;9.71;100.00
14117;BME280;7137;51.436;6.544;2023-04-01T01:28:47;98838.28;;;9.81;100.00
14117;BME280;7137;51.436;6.544;2023-04-01T01:32:01;98833.34;;;9.76;100.00
14117;BME280;7137;51.436;6.544;2023-04-01T01:35:16;98831.47;;;9.78;100.00
14117;BME280;7137;51.436;6.544;2023-04-01T01:38:23;98834.38;;;9.74;100.00
14117;BME280;7137;51.436;6.544;2023-04-01T01:41:26;98827.94;;;9.79;100.00
14117;BME280;7137;51.436;6.544;2023-04-01T01:44:29;98840.97;;;9.79;100.00
14117;BME280;7137;51.436;6.544;2023-04-01T01:47:33;98843.78;;;9.76;100.00
14117;BME280;7137;51.436;6.544;2023-04-01T01:50:37;98841.81;;;9.80;100.00
14117;BME280;7137;51.436;6.544;2023-04-01T01:53:39;98830.03;;;9.89;100.00
14117;BME280;7137;51.436;6.544;2023-04-01T02:00:39;98841.63;;;9.83;100.00
14117;BME280;7137;51.436;6.544;2023-04-01T02:03:42;98840.25;;;9.77;100.00
14117;BME280;7137;51.436;6.544;2023-04-01T02:06:50;98844.63;;;9.77;100.00
14117;BME280;7137;51.436;6.544;2023-04-01T02:09:54;98845.06;;;9.83;100.00
14117;BME280;7137;51.436;6.544;2023-04-01T02:12:59;98853.66;;;9.71;100.00
14117;BME280;7137;51.436;6.544;2023-04-01T02:16:06;98858.53;;;9.62;100.00
14117;BME280;7137;51.436;6.544;2023-04-01T02:19:10;98864.03;;;9.57;100.00
14117;BME280;7137;51.436;6.544;2023-04-01T02:22:18;98862.25;;;9.58;100.00
14117;BME280;7137;51.436;6.544;2023-04-01T02:25:23;98869.16;;;9.59;100.00
14117;BME280;7137;51.436;6.544;2023-04-01T02:28:27;98859.66;;;9.58;100.00
14117;BME280;7137;51.436;6.544;2023-04-01T02:31:30;98873.91;;;9.66;100.00
14117;BME280;7137;51.436;6.544;2023-04-01T02:34:32;98866.38;;;9.62;100.00
14117;BME280;7137;51.436;6.544;2023-04-01T02:37:35;98868.22;;;9.60;100.00
14117;BME280;7137;51.436;6.544;2023-04-01T02:40:45;98872.03;;;9.68;100.00
14117;BME280;7137;51.436;6.544;2023-04-01T02:43:47;98866.59;;;9.73;100.00
14117;BME280;7137;51.436;6.544;2023-04-01T02:46:48;98869.44;;;9.68;100.00
14117;BME280;7137;51.436;6.544;2023-04-01T02:49:50;98869.75;;;9.78;100.00
14117;BME280;7137;51.436;6.544;2023-04-01T02:52:53;98869.97;;;9.89;100.00
14117;BME280;7137;51.436;6.544;2023-04-01T02:55:54;98880.72;;;9.69;100.00
14117;BME280;7137;51.436;6.544;2023-04-01T02:58:56;98870.13;;;9.72;100.00
14117;BME280;7137;51.436;6.544;2023-04-01T03:01:57;98876.84;;;9.76;100.00
14117;BME280;7137;51.436;6.544;2023-04-01T03:04:59;98871.22;;;9.68;100.00
14117;BME280;7137;51.436;6.544;2023-04-01T03:08:02;98873.72;;;9.69;100.00
14117;BME280;7137;51.436;6.544;2023-04-01T03:11:04;98880.13;;;9.64;100.00
14117;BME280;7137;51.436;6.544;2023-04-01T03:14:06;98876.19;;;9.72;100.00
14117;BME280;7137;51.436;6.544;2023-04-01T03:17:07;98874.19;;;9.62;100.00
14117;BME280;7137;51.436;6.544;2023-04-01T03:20:10;98878.38;;;9.64;100.00
14117;BME280;7137;51.436;6.544;2023-04-01T03:23:13;98883.03;;;9.59;100.00
14117;BME280;7137;51.436;6.544;2023-04-01T03:26:17;98884.44;;;9.65;100.00
14117;BME280;7137;51.436;6.544;2023-04-01T03:29:19;98888.75;;;9.80;100.00
14117;BME280;7137;51.436;6.544;2023-04-01T03:32:20;98884.00;;;9.72;100.00
14117;BME280;7137;51.436;6.544;2023-04-01T03:35:22;98889.72;;;9.63;100.00
14117;BME280;7137;51.436;6.544;2023-04-01T03:38:25;98891.88;;;9.71;100.00
14117;BME280;7137;51.436;6.544;2023-04-01T03:41:27;98894.16;;;9.77;100.00
14117;BME280;7137;51.436;6.544;2023-04-01T03:44:30;98891.97;;;9.69;100.00
14117;BME280;7137;51.436;6.544;2023-04-01T03:47:32;98906.69;;;9.70;100.00
14117;BME280;7137;51.436;6.544;2023-04-01T03:50:34;98901.13;;;9.76;100.00
14117;BME280;7137;51.436;6.544;2023-04-01T03:53:38;98900.47;;;9.73;100.00
14117;BME280;7137;51.436;6.544;2023-04-01T03:56:39;98899.47;;;9.75;100.00
14117;BME280;7137;51.436;6.544;2023-04-01T03:59:41;98903.84;;;9.75;100.00
14117;BME280;7137;51.436;6.544;2023-04-01T04:02:44;98907.53;;;9.71;100.00
14117;BME280;7137;51.436;6.544;2023-04-01T04:05:46;98909.78;;;9.77;100.00
14117;BME280;7137;51.436;6.544;2023-04-01T04:08:50;98911.28;;;9.81;100.00
14117;BME280;7137;51.436;6.544;2023-04-01T04:11:51;98908.81;;;9.64;100.00
14117;BME280;7137;51.436;6.544;2023-04-01T04:14:53;98911.59;;;9.61;100.00
14117;BME280;7137;51.436;6.544;2023-04-01T04:17:54;98909.56;;;9.66;100.00
14117;BME280;7137;51.436;6.544;2023-04-01T04:20:56;98911.59;;;9.61;100.00
14117;BME280;7137;51.436;6.544;2023-04-01T04:24:00;98921.19;;;9.60;100.00
14117;BME280;7137;51.436;6.544;2023-04-01T04:27:03;98920.66;;;9.69;100.00
14117;BME280;7137;51.436;6.544;2023-04-01T04:30:06;98921.59;;;9.52;100.00
14117;BME280;7137;51.436;6.544;2023-04-01T04:33:08;98917.50;;;9.48;100.00
14117;BME280;7137;51.436;6.544;2023-04-01T04:36:09;98925.66;;;9.58;100.00
14117;BME280;7137;51.436;6.544;2023-04-01T04:39:12;98929.09;;;9.59;100.00
14117;BME280;7137;51.436;6.544;2023-04-01T04:42:15;98937.91;;;9.72;100.00
14117;BME280;7137;51.436;6.544;2023-04-01T04:45:16;98930.78;;;9.60;100.00
14117;BME280;7137;51.436;6.544;2023-04-01T04:48:18;98931.09;;;9.53;100.00
14117;BME280;7137;51.436;6.544;2023-04-01T04:51:20;98931.75;;;9.73;100.00
14117;BME280;7137;51.436;6.544;2023-04-01T04:54:23;98940.19;;;9.62;100.00
14117;BME280;7137;51.436;6.544;2023-04-01T04:57:25;98934.63;;;9.68;100.00
14117;BME280;7137;51.436;6.544;2023-04-01T05:00:27;98934.47;;;9.71;100.00
14117;BME280;7137;51.436;6.544;2023-04-01T05:03:28;98941.34;;;9.72;100.00
14117;BME280;7137;51.436;6.544;2023-04-01T05:06:30;98938.50;;;9.61;100.00
14117;BME280;7137;51.436;6.544;2023-04-01T05:09:33;98950.69;;;9.61;100.00
14117;BME280;7137;51.436;6.544;2023-04-01T05:12:35;98938.50;;;9.61;100.00
14117;BME280;7137;51.436;6.544;2023-04-01T05:15:39;98947.56;;;9.70;100.00
14117;BME280;7137;51.436;6.544;2023-04-01T05:18:40;98949.31;;;9.69;100.00
14117;BME280;7137;51.436;6.544;2023-04-01T05:21:42;98954.16;;;9.61;100.00
14117;BME280;7137;51.436;6.544;2023-04-01T05:24:45;98957.88;;;9.57;100.00
14117;BME280;7137;51.436;6.544;2023-04-01T05:27:46;98951.09;;;9.69;100.00
14117;BME280;7137;51.436;6.544;2023-04-01T05:30:48;98950.09;;;9.56;100.00
14117;BME280;7137;51.436;6.544;2023-04-01T05:33:50;98956.66;;;9.63;100.00
14117;BME280;7137;51.436;6.544;2023-04-01T05:36:51;98961.06;;;9.46;100.00
14117;BME280;7137;51.436;6.544;2023-04-01T05:39:54;98956.16;;;9.56;100.00
14117;BME280;7137;51.436;6.544;2023-04-01T05:42:56;98964.81;;;9.57;100.00
14117;BME280;7137;51.436;6.544;2023-04-01T05:45:58;98966.75;;;9.53;100.00
14117;BME280;7137;51.436;6.544;2023-04-01T05:48:59;98968.53;;;9.52;100.00
14117;BME280;7137;51.436;6.544;2023-04-01T05:52:01;98973.31;;;9.60;100.00
14117;BME280;7137;51.436;6.544;2023-04-01T05:55:05;98967.56;;;9.69;100.00
14117;BME280;7137;51.436;6.544;2023-04-01T05:58:07;98968.44;;;9.54;100.00
14117;BME280;7137;51.436;6.544;2023-04-01T06:01:10;98967.41;;;9.57;100.00
14117;BME280;7137;51.436;6.544;2023-04-01T06:04:14;98976.25;;;9.54;100.00
14117;BME280;7137;51.436;6.544;2023-04-01T06:07:17;98969.94;;;9.42;100.00
14117;BME280;7137;51.436;6.544;2023-04-01T06:10:21;98974.84;;;9.48;100.00
14117;BME280;7137;51.436;6.544;2023-04-01T06:13:37;98977.78;;;9.58;100.00
14117;BME280;7137;51.436;6.544;2023-04-01T06:16:51;98983.41;;;9.50;100.00
14117;BME280;7137;51.436;6.544;2023-04-01T06:20:03;98987.88;;;9.48;100.00
14117;BME280;7137;51.436;6.544;2023-04-01T06:23:32;98993.56;;;9.55;100.00
14117;BME280;7137;51.436;6.544;2023-04-01T06:26:45;98986.53;;;9.57;100.00
14117;BME280;7137;51.436;6.544;2023-04-01T06:30:10;98992.22;;;9.64;100.00
14117;BME280;7137;51.436;6.544;2023-04-01T06:33:27;99001.44;;;9.85;100.00
14117;BME280;7137;51.436;6.544;2023-04-01T06:36:52;98993.41;;;9.74;100.00
14117;BME280;7137;51.436;6.544;2023-04-01T06:40:22;99006.28;;;9.61;100.00
14117;BME280;7137;51.436;6.544;2023-04-01T06:43:36;99007.44;;;9.87;100.00
14117;BME280;7137;51.436;6.544;2023-04-01T06:46:44;99012.13;;;9.96;100.00
14117;BME280;7137;51.436;6.544;2023-04-01T06:49:53;99008.78;;;9.78;100.00
14117;BME280;7137;51.436;6.544;2023-04-01T06:53:02;99008.53;;;9.83;100.00
14117;BME280;7137;51.436;6.544;2023-04-01T06:56:09;99018.09;;;9.98;100.00
14117;BME280;7137;51.436;6.544;2023-04-01T06:59:16;99017.94;;;10.01;100.00
14117;BME280;7137;51.436;6.544;2023-04-01T07:02:24;99022.53;;;10.12;100.00
14117;BME280;7137;51.436;6.544;2023-04-01T07:05:31;99029.03;;;10.05;100.00
14117;BME280;7137;51.436;6.544;2023-04-01T07:08:37;99025.06;;;9.98;100.00
14117;BME280;7137;51.436;6.544;2023-04-01T07:11:39;99033.44;;;9.89;100.00
14117;BME280;7137;51.436;6.544;2023-04-01T07:14:44;99033.59;;;10.01;100.00
14117;BME280;7137;51.436;6.544;2023-04-01T07:17:48;99032.25;;;9.94;100.00
14117;BME280;7137;51.436;6.544;2023-04-01T07:20:51;99044.59;;;10.06;100.00
14117;BME280;7137;51.436;6.544;2023-04-01T07:23:56;99042.25;;;10.02;100.00
14117;BME280;7137;51.436;6.544;2023-04-01T07:27:00;99052.00;;;10.14;100.00
14117;BME280;7137;51.436;6.544;2023-04-01T07:30:06;99052.16;;;10.11;100.00
14117;BME280;7137;51.436;6.544;2023-04-01T07:33:16;99063.28;;;9.99;100.00
14117;BME280;7137;51.436;6.544;2023-04-01T07:36:24;99063.44;;;10.11;100.00
14117;BME280;7137;51.436;6.544;2023-04-01T07:39:38;99070.09;;;10.17;100.00
14117;BME280;7137;51.436;6.544;2023-04-01T07:46:24;99076.06;;;10.03;100.00
14117;BME280;7137;51.436;6.544;2023-04-01T07:49:37;99082.13;;;10.20;100.00
14117;BME280;7137;51.436;6.544;2023-04-01T07:52:49;99090.50;;;10.40;100.00
14117;BME280;7137;51.436;6.544;2023-04-01T07:56:01;99087.22;;;10.53;100.00
14117;BME280;7137;51.436;6.544;2023-04-01T07:59:10;99096.19;;;10.63;100.00
14117;BME280;7137;51.436;6.544;2023-04-01T08:02:25;99091.25;;;10.58;100.00
14117;BME280;7137;51.436;6.544;2023-04-01T08:05:40;99106.47;;;10.66;100.00
14117;BME280;7137;51.436;6.544;2023-04-01T08:08:50;99100.28;;;10.37;100.00
14117;BME280;7137;51.436;6.544;2023-04-01T08:12:02;99106.56;;;10.64;100.00
14117;BME280;7137;51.436;6.544;2023-04-01T08:15:11;99111.91;;;10.47;100.00
14117;BME280;7137;51.436;6.544;2023-04-01T08:18:23;99121.69;;;10.44;100.00
14117;BME280;7137;51.436;6.544;2023-04-01T08:21:39;99115.72;;;10.42;100.00
14117;BME280;7137;51.436;6.544;2023-04-01T08:24:43;99124.66;;;10.67;100.00
14117;BME280;7137;51.436;6.544;2023-04-01T08:27:48;99131.31;;;10.73;100.00
14117;BME280;7137;51.436;6.544;2023-04-01T08:30:55;99138.06;;;10.61;100.00
14117;BME280;7137;51.436;6.544;2023-04-01T08:34:03;99136.16;;;10.79;100.00
14117;BME280;7137;51.436;6.544;2023-04-01T08:37:08;99152.59;;;10.81;100.00
14117;BME280;7137;51.436;6.544;2023-04-01T08:40:27;99144.00;;;10.79;100.00
14117;BME280;7137;51.436;6.544;2023-04-01T08:47:20;99149.59;;;10.73;100.00
14117;BME280;7137;51.436;6.544;2023-04-01T08:50:54;99154.72;;;10.75;100.00
14117;BME280;7137;51.436;6.544;2023-04-01T08:54:14;99156.06;;;10.96;100.00
14117;BME280;7137;51.436;6.544;2023-04-01T08:57:32;99155.59;;;10.89;100.00
14117;BME280;7137;51.436;6.544;2023-04-01T09:00:43;99163.13;;;11.24;100.00
14117;BME280;7137;51.436;6.544;2023-04-01T09:04:02;99168.13;;;11.57;100.00
14117;BME280;7137;51.436;6.544;2023-04-01T09:07:22;99175.78;;;11.74;100.00
14117;BME280;7137;51.436;6.544;2023-04-01T09:10:49;99182.91;;;11.58;100.00
14117;BME280;7137;51.436;6.544;2023-04-01T09:17:48;99184.78;;;11.70;100.00
14117;BME280;7137;51.436;6.544;2023-04-01T09:21:04;99186.19;;;11.90;100.00
14117;BME280;7137;51.436;6.544;2023-04-01T09:24:31;99191.28;;;11.77;100.00
14117;BME280;7137;51.436;6.544;2023-04-01T09:27:43;99199.97;;;11.64;100.00
14117;BME280;7137;51.436;6.544;2023-04-01T09:31:16;99193.38;;;11.14;100.00
14117;BME280;7137;51.436;6.544;2023-04-01T09:34:30;99199.69;;;11.10;100.00
14117;BME280;7137;51.436;6.544;2023-04-01T09:37:51;99204.16;;;11.08;100.00
14117;BME280;7137;51.436;6.544;2023-04-01T09:40:57;99209.16;;;11.12;100.00
14117;BME280;7137;51.436;6.544;2023-04-01T09:44:01;99210.50;;;11.34;100.00
14117;BME280;7137;51.436;6.544;2023-04-01T09:47:19;99217.59;;;11.32;100.00
14117;BME280;7137;51.436;6.544;2023-04-01T09:50:35;99221.56;;;11.23;100.00
14117;BME280;7137;51.436;6.544;2023-04-01T09:53:59;99221.31;;;11.27;100.00
14117;BME280;7137;51.436;6.544;2023-04-01T09:57:30;99225.53;;;11.30;100.00
14117;BME280;7137;51.436;6.544;2023-04-01T10:15:30;99239.91;;;11.37;100.00
14117;BME280;7137;51.436;6.544;2023-04-01T10:18:53;99248.50;;;11.39;100.00
14117;BME280;7137;51.436;6.544;2023-04-01T10:33:10;99260.09;;;10.89;100.00
14117;BME280;7137;51.436;6.544;2023-04-01T10:36:52;99261.59;;;10.93;100.00
14117;BME280;7137;51.436;6.544;2023-04-01T10:40:24;99265.66;;;10.99;100.00
14117;BME280;7137;51.436;6.544;2023-04-01T10:44:01;99268.78;;;10.90;100.00
14117;BME280;7137;51.436;6.544;2023-04-01T10:47:25;99264.97;;;10.95;100.00
14117;BME280;7137;51.436;6.544;2023-04-01T10:51:04;99280.13;;;11.05;100.00
14117;BME280;7137;51.436;6.544;2023-04-01T10:54:26;99274.22;;;11.17;100.00
14117;BME280;7137;51.436;6.544;2023-04-01T10:57:52;99284.22;;;11.24;100.00
14117;BME280;7137;51.436;6.544;2023-04-01T11:01:27;99280.81;;;11.38;100.00
14117;BME280;7137;51.436;6.544;2023-04-01T11:05:02;99283.31;;;11.10;100.00
14117;BME280;7137;51.436;6.544;2023-04-01T11:12:12;99294.72;;;11.39;100.00
14117;BME280;7137;51.436;6.544;2023-04-01T11:15:41;99305.97;;;11.25;100.00
14117;BME280;7137;51.436;6.544;2023-04-01T11:19:22;99304.72;;;11.16;100.00
14117;BME280;7137;51.436;6.544;2023-04-01T11:23:00;99303.06;;;11.15;100.00
14117;BME280;7137;51.436;6.544;2023-04-01T11:26:08;99310.31;;;10.94;100.00
14117;BME280;7137;51.436;6.544;2023-04-01T11:29:35;99317.06;;;10.98;100.00
14117;BME280;7137;51.436;6.544;2023-04-01T11:32:50;99313.75;;;11.11;100.00
14117;BME280;7137;51.436;6.544;2023-04-01T11:36:08;99322.66;;;11.22;100.00
14117;BME280;7137;51.436;6.544;2023-04-01T11:39:20;99323.44;;;11.09;100.00
14117;BME280;7137;51.436;6.544;2023-04-01T11:42:34;99335.59;;;10.94;100.00
14117;BME280;7137;51.436;6.544;2023-04-01T11:45:44;99335.19;;;10.86;100.00
14117;BME280;7137;51.436;6.544;2023-04-01T11:48:55;99342.50;;;10.95;100.00
14117;BME280;7137;51.436;6.544;2023-04-01T11:52:17;99346.22;;;11.07;100.00
14117;BME280;7137;51.436;6.544;2023-04-01T11:55:27;99355.06;;;11.20;100.00
14117;BME280;7137;51.436;6.544;2023-04-01T11:59:01;99348.75;;;11.54;100.00
14117;BME280;7137;51.436;6.544;2023-04-01T12:02:11;99354.53;;;11.75;100.00
14117;BME280;7137;51.436;6.544;2023-04-01T12:05:36;99360.22;;;11.97;100.00
14117;BME280;7137;51.436;6.544;2023-04-01T12:08:46;99358.63;;;12.09;100.00
14117;BME280;7137;51.436;6.544;2023-04-01T12:12:06;99367.72;;;12.17;100.00
14117;BME280;7137;51.436;6.544;2023-04-01T12:15:20;99367.72;;;12.32;100.00
14117;BME280;7137;51.436;6.544;2023-04-01T12:18:33;99372.75;;;12.06;100.00
14117;BME280;7137;51.436;6.544;2023-04-01T12:21:38;99375.19;;;12.09;100.00
14117;BME280;7137;51.436;6.544;2023-04-01T12:24:47;99378.53;;;11.97;100.00
14117;BME280;7137;51.436;6.544;2023-04-01T12:27:59;99382.34;;;11.92;100.00
14117;BME280;7137;51.436;6.544;2023-04-01T12:31:10;99387.28;;;11.96;100.00
14117;BME280;7137;51.436;6.544;2023-04-01T12:38:13;99396.22;;;11.62;100.00
14117;BME280;7137;51.436;6.544;2023-04-01T12:41:24;99407.88;;;11.72;100.00
14117;BME280;7137;51.436;6.544;2023-04-01T12:44:37;99402.66;;;11.56;100.00
14117;BME280;7137;51.436;6.544;2023-04-01T12:47:55;99404.34;;;11.57;100.00
14117;BME280;7137;51.436;6.544;2023-04-01T12:54:52;99421.63;;;11.60;100.00
14117;BME280;7137;51.436;6.544;2023-04-01T12:58:28;99422.50;;;11.45;100.00
14117;BME280;7137;51.436;6.544;2023-04-01T13:01:53;99422.78;;;11.40;100.00
14117;BME280;7137;51.436;6.544;2023-04-01T13:05:36;99430.22;;;11.62;100.00
14117;BME280;7137;51.436;6.544;2023-04-01T13:08:44;99431.06;;;11.63;100.00
14117;BME280;7137;51.436;6.544;2023-04-01T13:12:01;99441.97;;;11.71;100.00
14117;BME280;7137;51.436;6.544;2023-04-01T13:15:26;99445.66;;;11.67;100.00
14117;BME280;7137;51.436;6.544;2023-04-01T13:18:36;99450.44;;;11.44;100.00
14117;BME280;7137;51.436;6.544;2023-04-01T13:21:51;99450.72;;;11.54;100.00
14117;BME280;7137;51.436;6.544;2023-04-01T13:25:01;99443.59;;;11.57;100.00
14117;BME280;7137;51.436;6.544;2023-04-01T13:28:15;99452.19;;;11.44;100.00
14117;BME280;7137;51.436;6.544;2023-04-01T13:31:33;99458.19;;;11.46;100.00
14117;BME280;7137;51.436;6.544;2023-04-01T13:34:46;99461.47;;;11.34;100.00
14117;BME280;7137;51.436;6.544;2023-04-01T13:37:59;99454.97;;;11.25;100.00
14117;BME280;7137;51.436;6.544;2023-04-01T13:41:12;99459.59;;;11.36;100.00
14117;BME280;7137;51.436;6.544;2023-04-01T13:44:29;99472.31;;;11.26;100.00
14117;BME280;7137;51.436;6.544;2023-04-01T13:48:00;99472.69;;;11.36;100.00
14117;BME280;7137;51.436;6.544;2023-04-01T13:51:38;99480.59;;;11.34;100.00
14117;BME280;7137;51.436;6.544;2023-04-01T13:54:55;99474.34;;;11.05;100.00
14117;BME280;7137;51.436;6.544;2023-04-01T13:58:15;99483.03;;;11.06;100.00
14117;BME280;7137;51.436;6.544;2023-04-01T14:01:28;99485.63;;;11.06;100.00
14117;BME280;7137;51.436;6.544;2023-04-01T14:04:44;99486.72;;;11.02;100.00
14117;BME280;7137;51.436;6.544;2023-04-01T14:07:57;99491.88;;;11.03;100.00
14117;BME280;7137;51.436;6.544;2023-04-01T14:11:13;99490.38;;;11.15;100.00
14117;BME280;7137;51.436;6.544;2023-04-01T14:14:23;99497.97;;;11.19;100.00
14117;BME280;7137;51.436;6.544;2023-04-01T14:17:44;99502.00;;;11.25;100.00
14117;BME280;7137;51.436;6.544;2023-04-01T14:20:51;99504.88;;;11.20;100.00
14117;BME280;7137;51.436;6.544;2023-04-01T14:24:14;99506.97;;;10.98;100.00
14117;BME280;7137;51.436;6.544;2023-04-01T14:27:38;99515.91;;;11.10;100.00
14117;BME280;7137;51.436;6.544;2023-04-01T14:30:53;99511.78;;;11.21;100.00
14117;BME280;7137;51.436;6.544;2023-04-01T14:34:09;99517.97;;;11.36;100.00
14117;BME280;7137;51.436;6.544;2023-04-01T14:37:33;99520.59;;;11.36;100.00
14117;BME280;7137;51.436;6.544;2023-04-01T14:40:54;99521.16;;;11.25;100.00
14117;BME280;7137;51.436;6.544;2023-04-01T14:44:10;99529.44;;;11.34;100.00
14117;BME280;7137;51.436;6.544;2023-04-01T14:50:50;99527.09;;;11.45;100.00
14117;BME280;7137;51.436;6.544;2023-04-01T14:53:59;99541.19;;;11.42;100.00
14117;BME280;7137;51.436;6.544;2023-04-01T14:57:09;99542.25;;;11.54;100.00
14117;BME280;7137;51.436;6.544;2023-04-01T15:00:13;99542.59;;;11.48;100.00
14117;BME280;7137;51.436;6.544;2023-04-01T15:03:22;99535.13;;;11.42;100.00
14117;BME280;7137;51.436;6.544;2023-04-01T15:10:02;99552.03;;;11.35;100.00
14117;BME280;7137;51.436;6.544;2023-04-01T15:13:13;99562.50;;;11.35;100.00
14117;BME280;7137;51.436;6.544;2023-04-01T15:16:21;99565.38;;;11.30;100.00
14117;BME280;7137;51.436;6.544;2023-04-01T15:19:39;99570.78;;;11.10;100.00
14117;BME280;7137;51.436;6.544;2023-04-01T15:23:06;99577.69;;;11.11;100.00
14117;BME280;7137;51.436;6.544;2023-04-01T15:26:22;99575.16;;;11.09;100.00
14117;BME280;7137;51.436;6.544;2023-04-01T15:29:43;99586.06;;;11.17;100.00
14117;BME280;7137;51.436;6.544;2023-04-01T15:32:57;99587.84;;;11.17;100.00
14117;BME280;7137;51.436;6.544;2023-04-01T15:36:08;99594.53;;;11.38;100.00
14117;BME280;7137;51.436;6.544;2023-04-01T15:39:19;99595.81;;;11.31;100.00
14117;BME280;7137;51.436;6.544;2023-04-01T15:42:42;99597.59;;;11.30;100.00
14117;BME280;7137;51.436;6.544;2023-04-01T15:45:51;99607.88;;;11.34;100.00
14117;BME280;7137;51.436;6.544;2023-04-01T15:49:04;99606.56;;;11.42;100.00
14117;BME280;7137;51.436;6.544;2023-04-01T15:52:15;99610.53;;;11.49;100.00
14117;BME280;7137;51.436;6.544;2023-04-01T15:55:25;99606.50;;;11.59;100.00
14117;BME280;7137;51.436;6.544;2023-04-01T15:58:41;99617.78;;;11.44;100.00
14117;BME280;7137;51.436;6.544;2023-04-01T16:01:53;99617.88;;;11.25;100.00
14117;BME280;7137;51.436;6.544;2023-04-01T16:05:05;99623.34;;;11.21;100.00
14117;BME280;7137;51.436;6.544;2023-04-01T16:08:31;99622.63;;;11.35;100.00
14117;BME280;7137;51.436;6.544;2023-04-01T16:11:43;99635.31;;;11.25;100.00
14117;BME280;7137;51.436;6.544;2023-04-01T16:14:58;99637.66;;;11.14;100.00
14117;BME280;7137;51.436;6.544;2023-04-01T16:18:19;99642.34;;;11.07;100.00
14117;BME280;7137;51.436;6.544;2023-04-01T16:21:35;99640.75;;;11.05;100.00
14117;BME280;7137;51.436;6.544;2023-04-01T16:24:41;99640.28;;;10.96;100.00
14117;BME280;7137;51.436;6.544;2023-04-01T16:27:50;99648.06;;;10.98;100.00
14117;BME280;7137;51.436;6.544;2023-04-01T16:30:57;99654.50;;;11.08;100.00
14117;BME280;7137;51.436;6.544;2023-04-01T16:34:03;99651.66;;;11.13;100.00
14117;BME280;7137;51.436;6.544;2023-04-01T16:37:11;99653.28;;;10.98;100.00
14117;BME280;7137;51.436;6.544;2023-04-01T16:40:23;99659.34;;;10.98;100.00
14117;BME280;7137;51.436;6.544;2023-04-01T16:43:30;99666.47;;;10.95;100.00
14117;BME280;7137;51.436;6.544;2023-04-01T16:46:39;99673.56;;;10.93;100.00
14117;BME280;7137;51.436;6.544;2023-04-01T16:49:46;99679.38;;;10.81;100.00
14117;BME280;7137;51.436;6.544;2023-04-01T16:52:58;99682.16;;;10.95;100.00
14117;BME280;7137;51.436;6.544;2023-04-01T16:56:07;99689.38;;;10.90;100.00
14117;BME280;7137;51.436;6.544;2023-04-01T16:59:19;99690.84;;;10.95;100.00
14117;BME280;7137;51.436;6.544;2023-04-01T17:02:26;99697.00;;;10.94;100.00
14117;BME280;7137;51.436;6.544;2023-04-01T17:05:46;99700.16;;;11.01;100.00
14117;BME280;7137;51.436;6.544;2023-04-01T17:09:01;99706.53;;;10.95;100.00
14117;BME280;7137;51.436;6.544;2023-04-01T17:12:10;99718.03;;;10.91;100.00
14117;BME280;7137;51.436;6.544;2023-04-01T17:15:23;99715.50;;;10.90;100.00
14117;BME280;7137;51.436;6.544;2023-04-01T17:18:35;99719.22;;;10.86;100.00
14117;BME280;7137;51.436;6.544;2023-04-01T17:21:49;99720.81;;;10.88;100.00
14117;BME280;7137;51.436;6.544;2023-04-01T17:25:07;99726.31;;;10.82;100.00
14117;BME280;7137;51.436;6.544;2023-04-01T17:28:21;99732.69;;;10.77;100.00
14117;BME280;7137;51.436;6.544;2023-04-01T17:31:51;99729.72;;;10.84;100.00
14117;BME280;7137;51.436;6.544;2023-04-01T17:35:01;99738.50;;;10.64;100.00
14117;BME280;7137;51.436;6.544;2023-04-01T17:38:13;99743.56;;;10.67;100.00
14117;BME280;7137;51.436;6.544;2023-04-01T17:41:28;99751.63;;;10.63;100.00
14117;BME280;7137;51.436;6.544;2023-04-01T17:44:44;99749.88;;;10.63;100.00
14117;BME280;7137;51.436;6.544;2023-04-01T17:47:59;99760.16;;;10.66;100.00
14117;BME280;7137;51.436;6.544;2023-04-01T17:51:16;99767.31;;;10.63;100.00
14117;BME280;7137;51.436;6.544;2023-04-01T17:54:25;99767.09;;;10.67;100.00
14117;BME280;7137;51.436;6.544;2023-04-01T17:57:39;99763.69;;;10.65;100.00